createdAt,value
2023-01-22T00:01:59.924Z,56.95
2023-01-22T00:04:01.783Z,56.45
2023-01-22T00:06:06.217Z,56.41
2023-01-22T00:08:07.812Z,56.58
2023-01-22T00:10:10.908Z,56.83
2023-01-22T00:12:12.789Z,56.21
2023-01-22T00:14:14.576Z,56.62
2023-01-22T00:16:19.283Z,56.84
2023-01-22T00:18:20.923Z,56.52
2023-01-22T00:20:24.635Z,56.89
2023-01-22T00:22:26.271Z,56.82
2023-01-22T00:24:27.833Z,56.66
2023-01-22T00:26:29.368Z,56.44
2023-01-22T00:28:31.439Z,56.22
2023-01-22T00:30:33.421Z,56.50
2023-01-22T00:32:35.111Z,56.30
2023-01-22T00:34:36.850Z,56.37
2023-01-22T00:36:41.074Z,56.77
2023-01-22T00:38:42.857Z,56.55
2023-01-22T00:40:44.555Z,56.80
2023-01-22T00:42:46.305Z,56.61
2023-01-22T00:44:48.251Z,56.35
2023-01-22T00:46:52.885Z,56.74
2023-01-22T00:48:54.907Z,56.84
2023-01-22T00:50:57.647Z,56.24
2023-01-22T00:52:59.379Z,56.52
2023-01-22T00:55:01.091Z,56.35
2023-01-22T00:57:02.754Z,57.01
2023-01-22T00:59:10.453Z,56.59
2023-01-22T01:01:14.509Z,56.35
2023-01-22T01:03:30.574Z,56.56
2023-01-22T01:05:35.568Z,56.76
2023-01-22T01:07:37.193Z,56.29
2023-01-22T01:09:40.042Z,56.85
2023-01-22T01:11:41.559Z,56.63
2023-01-22T01:13:43.928Z,56.69
2023-01-22T01:15:48.279Z,56.76
2023-01-22T01:17:50.132Z,56.72
2023-01-22T01:19:51.857Z,56.47
2023-01-22T01:21:53.616Z,57.01
2023-01-22T01:23:59.974Z,56.62
2023-01-22T01:26:08.922Z,56.35
2023-01-22T01:28:13.321Z,57.04
2023-01-22T01:30:15.696Z,56.57
2023-01-22T01:32:19.151Z,56.84
2023-01-22T01:34:21.947Z,56.63
2023-01-22T01:36:46.247Z,56.74
2023-01-22T01:38:47.855Z,56.55
2023-01-22T01:40:49.377Z,56.59
2023-01-22T01:42:51.108Z,56.78
2023-01-22T01:45:17.627Z,57.08
2023-01-22T01:47:34.425Z,57.05
2023-01-22T01:49:47.487Z,57.11
2023-01-22T01:51:50.236Z,56.97
2023-01-22T01:53:52.080Z,56.68
2023-01-22T01:55:56.511Z,56.43
2023-01-22T01:58:03.203Z,56.58
2023-01-22T02:00:13.239Z,57.11
2023-01-22T02:02:15.645Z,56.91
2023-01-22T02:04:19.663Z,56.88
2023-01-22T02:06:21.887Z,57.11
2023-01-22T02:08:24.160Z,56.80
2023-01-22T02:10:25.951Z,56.80
2023-01-22T02:12:28.002Z,56.58
2023-01-22T02:17:18.206Z,56.87
2023-01-22T02:19:19.981Z,57.23
2023-01-22T02:21:30.873Z,56.80
2023-01-22T02:23:36.933Z,56.94
2023-01-22T02:25:39.043Z,56.52
2023-01-22T02:27:43.833Z,56.73
2023-01-22T02:29:45.706Z,57.19
2023-01-22T02:31:47.392Z,56.50
2023-01-22T02:33:49.508Z,56.44
2023-01-22T02:35:51.027Z,56.88
2023-01-22T02:37:52.652Z,56.71
2023-01-22T02:39:54.413Z,56.44
2023-01-22T02:41:57.328Z,57.00
2023-01-22T02:44:05.197Z,56.77
2023-01-22T02:46:06.815Z,56.90
2023-01-22T02:48:08.758Z,56.72
2023-01-22T02:50:11.371Z,56.79
2023-01-22T02:52:14.153Z,56.60
2023-01-22T02:54:18.783Z,57.33
2023-01-22T02:56:23.481Z,56.88
2023-01-22T02:58:25.140Z,56.83
2023-01-22T03:00:26.947Z,56.93
2023-01-22T03:02:28.648Z,56.67
2023-01-22T03:04:32.195Z,56.90
2023-01-22T03:06:33.992Z,57.00
2023-01-22T03:08:41.664Z,56.70
2023-01-22T03:10:45.735Z,57.01
2023-01-22T03:13:07.121Z,57.01
2023-01-22T03:15:28.954Z,57.02
2023-01-22T03:17:49.606Z,56.72
2023-01-22T03:20:10.075Z,56.75
2023-01-22T03:22:12.100Z,57.18
2023-01-22T03:24:13.748Z,56.60
2023-01-22T03:26:16.541Z,57.09
2023-01-22T03:28:19.351Z,56.73
2023-01-22T03:30:26.796Z,57.13
2023-01-22T03:32:28.361Z,56.77
2023-01-22T03:34:29.933Z,56.90
2023-01-22T03:36:33.027Z,57.13
2023-01-22T03:38:38.729Z,56.83
2023-01-22T03:40:43.965Z,57.13
2023-01-22T03:42:45.496Z,57.25
2023-01-22T03:44:48.169Z,56.97
2023-01-22T03:46:51.430Z,57.18
2023-01-22T03:48:53.970Z,57.04
2023-01-22T03:50:55.841Z,57.49
2023-01-22T03:52:58.324Z,56.88
2023-01-22T03:55:00.034Z,57.29
2023-01-22T03:57:01.723Z,56.65
2023-01-22T03:59:06.737Z,56.73
2023-01-22T04:01:12.275Z,56.85
2023-01-22T04:03:13.895Z,56.62
2023-01-22T04:05:16.820Z,57.13
2023-01-22T04:07:19.484Z,56.72
2023-01-22T04:09:22.128Z,57.07
2023-01-22T04:11:32.969Z,56.85
2023-01-22T04:13:37.310Z,56.89
2023-01-22T04:15:39.479Z,57.14
2023-01-22T04:17:51.424Z,56.97
2023-01-22T04:20:10.166Z,56.70
2023-01-22T04:22:38.019Z,57.27
2023-01-22T04:24:41.200Z,57.32
2023-01-22T04:26:45.307Z,57.11
2023-01-22T04:28:48.773Z,56.68
2023-01-22T04:30:53.864Z,56.61
2023-01-22T04:33:14.164Z,56.62
2023-01-22T04:35:34.530Z,57.55
2023-01-22T04:37:36.910Z,56.89
2023-01-22T04:39:38.637Z,56.97
2023-01-22T04:41:48.851Z,56.75
2023-01-22T04:43:50.742Z,56.73
2023-01-22T04:46:02.450Z,56.90
2023-01-22T04:48:08.412Z,57.05
2023-01-22T04:50:23.814Z,57.25
2023-01-22T04:52:26.096Z,56.83
2023-01-22T04:54:27.843Z,57.22
2023-01-22T04:56:30.109Z,57.16
2023-01-22T04:58:31.683Z,56.65
2023-01-22T05:00:35.382Z,57.36
2023-01-22T05:02:38.527Z,56.60
2023-01-22T05:04:42.032Z,56.55
2023-01-22T05:06:44.003Z,56.82
2023-01-22T05:08:45.717Z,56.62
2023-01-22T05:10:48.251Z,57.22
2023-01-22T05:13:03.157Z,56.59
2023-01-22T05:15:18.685Z,56.85
2023-01-22T05:17:26.764Z,56.50
2023-01-22T05:19:28.615Z,56.92
2023-01-22T05:21:30.381Z,57.10
2023-01-22T05:23:32.123Z,56.94
2023-01-22T05:25:33.879Z,56.96
2023-01-22T05:27:36.769Z,56.55
2023-01-22T05:29:44.241Z,56.69
2023-01-22T05:32:01.919Z,56.89
2023-01-22T05:34:08.176Z,56.49
2023-01-22T05:36:12.753Z,56.64
2023-01-22T05:38:14.654Z,56.92
2023-01-22T05:40:16.674Z,56.91
2023-01-22T05:42:23.860Z,56.51
2023-01-22T05:44:26.442Z,56.68
2023-01-22T05:46:33.297Z,57.24
2023-01-22T05:48:53.320Z,56.98
2023-01-22T05:51:04.660Z,56.77
2023-01-22T05:53:09.255Z,56.56
2023-01-22T05:55:12.357Z,56.11
2023-01-22T05:57:17.682Z,56.46
2023-01-22T05:59:22.271Z,56.89
2023-01-22T06:01:44.352Z,56.84
2023-01-22T06:03:46.099Z,56.55
2023-01-22T06:06:17.711Z,56.54
2023-01-22T06:08:19.740Z,56.88
2023-01-22T06:10:26.518Z,56.75
2023-01-22T06:12:28.196Z,56.39
2023-01-22T06:14:30.674Z,56.87
2023-01-22T06:16:34.271Z,57.05
2023-01-22T06:18:35.908Z,56.94
2023-01-22T06:20:37.720Z,56.85
2023-01-22T06:22:42.407Z,56.65
2023-01-22T06:24:46.568Z,56.78
2023-01-22T06:26:50.220Z,56.76
2023-01-22T06:28:55.203Z,56.71
2023-01-22T06:31:05.439Z,56.88
2023-01-22T06:33:07.365Z,56.79
2023-01-22T06:35:12.124Z,56.26
2023-01-22T06:37:13.858Z,56.42
2023-01-22T06:39:20.271Z,56.35
2023-01-22T06:41:33.971Z,57.03
2023-01-22T06:43:38.644Z,56.55
2023-01-22T06:45:40.757Z,56.90
2023-01-22T06:47:45.705Z,56.45
2023-01-22T06:49:48.212Z,56.93
2023-01-22T06:51:49.868Z,56.96
2023-01-22T06:53:52.782Z,56.77
2023-01-22T06:55:58.388Z,57.07
2023-01-22T06:58:00.489Z,56.49
2023-01-22T07:00:02.017Z,56.49
2023-01-22T07:02:04.280Z,56.41
2023-01-22T07:04:08.658Z,56.33
2023-01-22T07:06:10.879Z,56.81
2023-01-22T07:08:15.439Z,56.69
2023-01-22T07:10:20.416Z,56.36
2023-01-22T07:12:23.724Z,56.90
2023-01-22T07:14:36.535Z,56.44
2023-01-22T07:16:40.563Z,56.84
2023-01-22T07:18:42.156Z,57.08
2023-01-22T07:20:43.816Z,56.74
2023-01-22T07:22:45.478Z,57.25
2023-01-22T07:24:49.902Z,56.56
2023-01-22T07:26:51.664Z,56.88
2023-01-22T07:28:53.292Z,56.90
2023-01-22T07:30:56.633Z,56.44
2023-01-22T07:33:03.254Z,56.94
2023-01-22T07:35:05.133Z,57.13
2023-01-22T07:37:06.887Z,56.54
2023-01-22T07:39:08.571Z,56.56
2023-01-22T07:41:24.522Z,57.06
2023-01-22T07:43:27.094Z,56.87
2023-01-22T07:45:35.771Z,56.66
2023-01-22T07:47:37.394Z,57.07
2023-01-22T07:49:38.967Z,56.92
2023-01-22T07:51:40.674Z,57.04
2023-01-22T07:53:42.909Z,56.86
2023-01-22T07:55:47.901Z,57.08
2023-01-22T07:57:57.551Z,57.33
2023-01-22T07:59:59.596Z,56.97
2023-01-22T08:02:03.461Z,57.31
2023-01-22T08:04:05.733Z,57.23
2023-01-22T08:06:15.401Z,56.70
2023-01-22T08:08:20.392Z,56.93
2023-01-22T08:10:21.900Z,56.96
2023-01-22T08:12:23.731Z,57.49
2023-01-22T08:14:25.464Z,57.37
2023-01-22T08:16:27.085Z,57.45
2023-01-22T08:18:31.117Z,57.19
2023-01-22T08:20:32.671Z,57.03
2023-01-22T08:22:34.429Z,57.61
2023-01-22T08:24:36.653Z,57.71
2023-01-22T08:26:39.197Z,57.43
2023-01-22T08:28:41.144Z,57.51
2023-01-22T08:30:46.526Z,57.53
2023-01-22T08:32:57.279Z,57.17
2023-01-22T08:34:59.022Z,57.23
2023-01-22T08:37:04.149Z,57.82
2023-01-22T08:39:13.641Z,57.29
2023-01-22T08:41:15.802Z,57.36
2023-01-22T08:43:17.715Z,57.43
2023-01-22T08:45:21.382Z,57.49
2023-01-22T08:47:30.413Z,57.86
2023-01-22T08:49:35.309Z,57.66
2023-01-22T08:51:39.067Z,57.76
2023-01-22T08:53:43.635Z,57.80
2023-01-22T08:55:51.497Z,57.64
2023-01-22T08:57:54.814Z,57.26
2023-01-22T09:00:01.430Z,57.20
2023-01-22T09:02:03.670Z,57.93
2023-01-22T09:04:08.157Z,57.48
2023-01-22T09:06:10.303Z,57.54
2023-01-22T09:08:12.004Z,57.62
2023-01-22T09:10:13.801Z,57.05
2023-01-22T09:12:15.529Z,57.54
2023-01-22T09:14:17.449Z,57.72
2023-01-22T09:16:19.074Z,57.57
2023-01-22T09:18:20.660Z,57.32
2023-01-22T09:20:22.556Z,57.55
2023-01-22T09:22:24.286Z,57.28
2023-01-22T09:24:26.324Z,57.89
2023-01-22T09:26:28.114Z,57.75
2023-01-22T09:28:29.810Z,57.49
2023-01-22T09:30:32.279Z,57.99
2023-01-22T09:32:37.340Z,57.39
2023-01-22T09:34:39.078Z,57.92
2023-01-22T09:36:43.115Z,57.43
2023-01-22T09:38:45.011Z,57.43
2023-01-22T09:41:00.576Z,57.72
2023-01-22T09:43:19.617Z,58.12
2023-01-22T09:45:25.864Z,57.46
2023-01-22T09:47:33.406Z,58.00
2023-01-22T09:50:18.485Z,57.62
2023-01-22T09:52:21.676Z,57.62
2023-01-22T09:54:24.693Z,57.47
2023-01-22T09:56:33.831Z,57.95
2023-01-22T09:58:35.984Z,57.26
2023-01-22T10:00:41.027Z,57.88
2023-01-22T10:02:54.095Z,57.33
2023-01-22T10:05:02.071Z,57.66
2023-01-22T10:07:14.951Z,57.25
2023-01-22T10:09:20.715Z,57.65
2023-01-22T10:11:22.315Z,57.58
2023-01-22T10:13:30.167Z,57.64
2023-01-22T10:15:33.256Z,57.61
2023-01-22T10:17:36.111Z,57.92
2023-01-22T10:19:46.936Z,57.83
2023-01-22T10:21:58.865Z,57.72
2023-01-22T10:24:00.640Z,57.52
2023-01-22T10:26:25.385Z,57.83
2023-01-22T10:28:28.274Z,57.89
2023-01-22T10:30:31.033Z,57.73
2023-01-22T10:32:33.040Z,57.98
2023-01-22T10:34:39.231Z,57.60
2023-01-22T10:36:48.067Z,57.68
2023-01-22T10:38:49.671Z,57.94
2023-01-22T10:41:03.238Z,58.06
2023-01-22T10:43:17.545Z,57.61
2023-01-22T10:45:19.765Z,57.86
2023-01-22T10:47:23.835Z,57.76
2023-01-22T10:49:27.494Z,57.67
2023-01-22T10:51:55.157Z,58.14
2023-01-22T10:54:00.852Z,57.97
2023-01-22T10:56:12.522Z,57.95
2023-01-22T10:58:18.233Z,57.78
2023-01-22T11:00:26.474Z,57.91
2023-01-22T11:02:29.047Z,58.10
2023-01-22T11:04:35.607Z,57.75
2023-01-22T11:06:55.032Z,57.97
2023-01-22T11:09:04.128Z,58.18
2023-01-22T11:11:10.776Z,58.07
2023-01-22T11:13:19.935Z,58.09
2023-01-22T11:15:21.434Z,57.70
2023-01-22T11:17:34.275Z,57.71
2023-01-22T11:19:46.109Z,58.09
2023-01-22T11:21:53.013Z,57.80
2023-01-22T11:24:02.351Z,57.64
2023-01-22T11:26:32.395Z,58.15
2023-01-22T11:28:41.845Z,58.06
2023-01-22T11:31:03.372Z,57.95
2023-01-22T11:33:26.006Z,57.68
2023-01-22T11:35:36.996Z,57.93
2023-01-22T11:38:15.706Z,58.24
2023-01-22T11:40:30.956Z,57.77
2023-01-22T11:42:44.092Z,58.14
2023-01-22T11:45:05.122Z,58.06
2023-01-22T11:47:30.136Z,58.02
2023-01-22T11:50:00.212Z,58.37
2023-01-22T11:52:31.176Z,58.24
2023-01-22T11:54:41.811Z,58.25
2023-01-22T11:57:11.484Z,58.40
2023-01-22T11:59:21.851Z,58.19
2023-01-22T12:01:56.491Z,58.16
2023-01-22T12:04:09.994Z,58.23
2023-01-22T12:06:43.687Z,58.38
2023-01-22T12:08:57.991Z,58.28
2023-01-22T12:11:32.025Z,58.57
2023-01-22T12:13:49.849Z,58.08
2023-01-22T12:16:10.921Z,58.48
2023-01-22T12:18:48.027Z,58.23
2023-01-22T12:21:15.977Z,58.09
2023-01-22T12:23:25.546Z,58.05
2023-01-22T12:25:35.975Z,57.92
2023-01-22T12:27:49.268Z,58.04
2023-01-22T12:30:01.756Z,57.93
2023-01-22T12:32:09.350Z,57.95
2023-01-22T12:34:20.788Z,57.81
2023-01-22T12:36:27.611Z,57.56
2023-01-22T12:39:09.084Z,57.46
2023-01-22T12:41:46.040Z,57.76
2023-01-22T12:43:54.263Z,57.45
2023-01-22T12:46:14.094Z,57.79
2023-01-22T12:48:34.640Z,57.53
2023-01-22T12:50:37.752Z,57.73
2023-01-22T12:52:40.892Z,57.56
2023-01-22T12:54:42.670Z,57.96
2023-01-22T12:56:44.453Z,57.60
2023-01-22T12:58:56.766Z,57.58
2023-01-22T13:01:05.084Z,57.56
2023-01-22T13:03:31.656Z,57.22
2023-01-22T13:05:33.905Z,57.46
2023-01-22T13:07:41.250Z,57.59
2023-01-22T13:09:44.380Z,57.60
2023-01-22T13:11:46.201Z,57.56
2023-01-22T13:14:23.550Z,57.53
2023-01-22T13:16:27.556Z,57.42
2023-01-22T13:18:48.526Z,57.60
2023-01-22T13:21:09.744Z,57.28
2023-01-22T13:23:13.855Z,57.54
2023-01-22T13:25:30.841Z,57.44
2023-01-22T13:27:37.449Z,57.38
2023-01-22T13:29:39.654Z,57.21
2023-01-22T13:32:17.332Z,57.45
2023-01-22T13:34:19.118Z,57.40
2023-01-22T13:36:20.752Z,57.47
2023-01-22T13:38:33.108Z,57.68
2023-01-22T13:40:46.326Z,57.38
2023-01-22T13:42:54.568Z,57.42
2023-01-22T13:44:57.049Z,57.41
2023-01-22T13:46:59.574Z,57.17
2023-01-22T13:49:04.733Z,57.28
2023-01-22T13:51:10.607Z,57.27
2023-01-22T13:53:29.893Z,57.22
2023-01-22T13:55:33.213Z,57.06
2023-01-22T13:57:35.614Z,57.22
2023-01-22T13:59:37.520Z,56.95
2023-01-22T14:01:39.207Z,57.00
2023-01-22T14:03:42.626Z,57.03
2023-01-22T14:05:50.120Z,57.02
2023-01-22T14:08:03.056Z,56.93
2023-01-22T14:10:14.145Z,56.86
2023-01-22T14:12:27.157Z,56.56
2023-01-22T14:14:40.211Z,56.93
2023-01-22T14:16:41.939Z,56.73
2023-01-22T14:18:47.717Z,56.81
2023-01-22T14:20:49.380Z,56.74
2023-01-22T14:22:50.999Z,56.95
2023-01-22T14:24:53.301Z,56.75
2023-01-22T14:26:59.737Z,56.73
2023-01-22T14:29:03.256Z,56.86
2023-01-22T14:31:05.247Z,56.96
2023-01-22T14:33:15.070Z,56.67
2023-01-22T14:35:22.652Z,56.50
2023-01-22T14:37:24.412Z,56.65
2023-01-22T14:39:26.553Z,56.56
2023-01-22T14:41:28.267Z,56.64
2023-01-22T14:43:30.063Z,56.69
2023-01-22T14:45:31.627Z,56.50
2023-01-22T14:47:33.925Z,56.59
2023-01-22T14:49:39.520Z,56.49
2023-01-22T14:51:41.286Z,56.67
2023-01-22T14:53:43.593Z,56.69
2023-01-22T14:55:47.845Z,56.56
2023-01-22T14:57:50.221Z,56.47
2023-01-22T14:59:51.943Z,56.57
2023-01-22T15:01:53.919Z,56.54
2023-01-22T15:03:56.624Z,56.44
2023-01-22T15:05:58.423Z,56.56
2023-01-22T15:08:05.236Z,56.38
2023-01-22T15:10:08.804Z,56.27
2023-01-22T15:12:10.763Z,56.76
2023-01-22T15:14:12.451Z,56.52
2023-01-22T15:16:14.237Z,56.49
2023-01-22T15:18:15.751Z,56.63
2023-01-22T15:20:21.384Z,56.66
2023-01-22T15:22:23.070Z,56.40
2023-01-22T15:24:26.642Z,56.52
2023-01-22T15:26:40.231Z,56.45
2023-01-22T15:28:41.905Z,56.51
2023-01-22T15:30:46.866Z,56.30
2023-01-22T15:32:48.608Z,56.65
2023-01-22T15:34:50.364Z,56.60
2023-01-22T15:36:51.994Z,56.43
2023-01-22T15:38:53.751Z,56.50
2023-01-22T15:41:05.229Z,56.38
2023-01-22T15:43:06.880Z,56.45
2023-01-22T15:45:10.636Z,56.14
2023-01-22T15:47:14.391Z,56.35
2023-01-22T15:49:18.260Z,56.32
2023-01-22T15:51:21.580Z,56.41
2023-01-22T15:53:23.760Z,56.37
2023-01-22T15:55:26.603Z,56.37
2023-01-22T15:57:28.267Z,56.37
2023-01-22T15:59:30.039Z,56.32
2023-01-22T16:01:34.603Z,56.24
2023-01-22T16:03:36.325Z,56.39
2023-01-22T16:05:38.068Z,56.47
2023-01-22T16:07:41.659Z,56.37
2023-01-22T16:09:43.416Z,56.33
2023-01-22T16:11:45.477Z,56.38
2023-01-22T16:13:48.129Z,56.04
2023-01-22T16:16:37.410Z,56.16
2023-01-22T16:18:41.969Z,56.24
2023-01-22T16:20:47.613Z,56.29
2023-01-22T16:22:49.654Z,56.26
2023-01-22T16:24:57.228Z,56.25
2023-01-22T16:26:59.076Z,56.29
2023-01-22T16:29:05.412Z,56.06
2023-01-22T16:31:10.254Z,56.31
2023-01-22T16:33:29.403Z,56.15
2023-01-22T16:35:31.451Z,56.38
2023-01-22T16:37:37.384Z,56.24
2023-01-22T16:39:41.682Z,55.98
2023-01-22T16:42:03.812Z,56.23
2023-01-22T16:44:16.266Z,56.25
2023-01-22T16:46:20.393Z,56.28
2023-01-22T16:48:22.011Z,56.24
2023-01-22T16:50:23.953Z,56.37
2023-01-22T16:52:25.621Z,56.69
2023-01-22T16:54:28.959Z,56.25
2023-01-22T16:56:32.540Z,56.32
2023-01-22T16:58:37.786Z,56.38
2023-01-22T17:00:44.511Z,56.30
2023-01-22T17:02:48.831Z,56.41
2023-01-22T17:04:52.611Z,56.21
2023-01-22T17:06:57.295Z,56.32
2023-01-22T17:09:01.359Z,56.35
2023-01-22T17:11:03.019Z,56.05
2023-01-22T17:13:06.577Z,56.47
2023-01-22T17:15:09.129Z,56.26
2023-01-22T17:17:13.769Z,56.35
2023-01-22T17:19:16.062Z,56.01
2023-01-22T17:21:19.180Z,56.50
2023-01-22T17:23:29.432Z,56.24
2023-01-22T17:25:31.368Z,56.40
2023-01-22T17:27:33.172Z,56.42
2023-01-22T17:29:36.425Z,56.21
2023-01-22T17:31:38.161Z,56.30
2023-01-22T17:33:39.830Z,56.42
2023-01-22T17:35:42.148Z,56.26
2023-01-22T17:37:43.978Z,56.19
2023-01-22T17:39:50.772Z,56.43
2023-01-22T17:41:52.448Z,56.32
2023-01-22T17:43:56.132Z,56.66
2023-01-22T17:45:58.046Z,56.47
2023-01-22T17:48:00.020Z,56.44
2023-01-22T17:50:01.623Z,56.43
2023-01-22T17:52:04.117Z,56.17
2023-01-22T17:54:09.418Z,56.59
2023-01-22T17:56:15.773Z,56.41
2023-01-22T17:58:18.723Z,56.43
2023-01-22T18:00:20.962Z,56.42
2023-01-22T18:02:22.908Z,56.57
2023-01-22T18:04:24.632Z,56.52
2023-01-22T18:06:26.470Z,56.33
2023-01-22T18:08:30.093Z,56.60
2023-01-22T18:10:34.214Z,56.85
2023-01-22T18:12:35.818Z,56.69
2023-01-22T18:14:39.785Z,56.85
2023-01-22T18:16:41.478Z,56.45
2023-01-22T18:18:47.113Z,56.82
2023-01-22T18:20:49.192Z,56.93
2023-01-22T18:22:57.665Z,56.68
2023-01-22T18:25:01.705Z,56.62
2023-01-22T18:27:03.808Z,56.67
2023-01-22T18:29:06.303Z,56.69
2023-01-22T18:31:19.328Z,56.83
2023-01-22T18:33:21.964Z,56.42
2023-01-22T18:35:23.704Z,56.81
2023-01-22T18:37:25.321Z,56.58
2023-01-22T18:39:31.079Z,57.03
2023-01-22T18:41:32.954Z,56.89
2023-01-22T18:43:34.609Z,56.84
2023-01-22T18:45:37.173Z,56.85
2023-01-22T18:47:38.812Z,56.97
2023-01-22T18:49:40.358Z,56.61
2023-01-22T18:51:42.439Z,56.80
2023-01-22T18:53:44.188Z,56.85
2023-01-22T18:55:46.005Z,57.14
2023-01-22T18:57:53.199Z,56.90
2023-01-22T18:59:54.876Z,56.71
2023-01-22T19:01:57.519Z,56.71
2023-01-22T19:04:05.036Z,57.17
2023-01-22T19:06:14.148Z,57.03
2023-01-22T19:08:15.755Z,57.54
2023-01-22T19:10:17.896Z,57.12
2023-01-22T19:12:26.417Z,56.80
2023-01-22T19:14:28.992Z,57.12
2023-01-22T19:16:31.839Z,56.76
2023-01-22T19:18:34.058Z,57.08
2023-01-22T19:20:39.545Z,56.90
2023-01-22T19:22:41.736Z,57.44
2023-01-22T19:24:46.160Z,57.10
2023-01-22T19:26:51.053Z,57.15
2023-01-22T19:28:56.066Z,56.89
2023-01-22T19:30:57.844Z,57.03
2023-01-22T19:32:59.495Z,57.20
2023-01-22T19:35:04.344Z,57.29
2023-01-22T19:37:06.678Z,57.29
2023-01-22T19:39:12.256Z,56.90
2023-01-22T19:41:14.431Z,57.28
2023-01-22T19:43:16.031Z,57.13
2023-01-22T19:45:18.071Z,56.97
2023-01-22T19:47:20.847Z,57.30
2023-01-22T19:49:22.520Z,57.11
2023-01-22T19:51:30.799Z,57.25
2023-01-22T19:53:34.148Z,56.92
2023-01-22T19:55:37.509Z,57.33
2023-01-22T19:57:39.165Z,57.36
2023-01-22T19:59:42.464Z,57.03
2023-01-22T20:01:45.770Z,57.36
2023-01-22T20:03:50.218Z,57.22
2023-01-22T20:05:52.148Z,57.34
2023-01-22T20:07:57.162Z,57.46
2023-01-22T20:10:01.679Z,57.16
2023-01-22T20:12:08.670Z,57.30
2023-01-22T20:14:12.235Z,57.39
2023-01-22T20:16:23.299Z,57.33
2023-01-22T20:18:25.426Z,57.23
2023-01-22T20:20:28.561Z,57.11
2023-01-22T20:22:30.413Z,57.13
2023-01-22T20:24:32.193Z,56.88
2023-01-22T20:26:34.360Z,57.47
2023-01-22T20:28:36.814Z,57.16
2023-01-22T20:30:38.413Z,57.28
2023-01-22T20:32:43.035Z,57.13
2023-01-22T20:34:52.210Z,57.48
2023-01-22T20:36:53.799Z,57.09
2023-01-22T20:38:55.949Z,57.32
2023-01-22T20:41:04.429Z,57.33
2023-01-22T20:43:06.285Z,57.59
2023-01-22T20:45:08.178Z,57.60
2023-01-22T20:47:09.885Z,57.16
2023-01-22T20:49:12.270Z,57.53
2023-01-22T20:51:16.959Z,57.32
2023-01-22T20:53:20.123Z,57.14
2023-01-22T20:55:21.933Z,57.26
2023-01-22T20:57:23.830Z,57.12
2023-01-22T20:59:31.910Z,57.31
2023-01-22T21:01:34.368Z,57.13
2023-01-22T21:03:37.019Z,57.15
2023-01-22T21:05:40.764Z,57.65
2023-01-22T21:07:42.329Z,57.14
2023-01-22T21:09:43.864Z,57.52
2023-01-22T21:11:45.514Z,57.33
2023-01-22T21:13:48.727Z,57.37
2023-01-22T21:15:52.079Z,57.57
2023-01-22T21:17:54.919Z,57.19
2023-01-22T21:19:57.932Z,57.22
2023-01-22T21:22:00.993Z,57.64
2023-01-22T21:24:03.973Z,57.35
2023-01-22T21:26:07.391Z,57.64
2023-01-22T21:28:09.077Z,57.36
2023-01-22T21:30:11.606Z,57.11
2023-01-22T21:32:15.239Z,57.61
2023-01-22T21:34:19.971Z,57.54
2023-01-22T21:36:22.382Z,57.56
2023-01-22T21:38:24.095Z,57.42
2023-01-22T21:40:25.911Z,57.52
2023-01-22T21:42:49.933Z,57.51
2023-01-22T21:45:10.028Z,57.26
2023-01-22T21:47:11.733Z,57.05
2023-01-22T21:49:20.254Z,57.51
2023-01-22T21:51:22.064Z,57.14
2023-01-22T21:53:23.823Z,57.48
2023-01-22T21:55:25.591Z,57.09
2023-01-22T21:57:28.388Z,57.43
2023-01-22T21:59:30.186Z,57.38
2023-01-22T22:01:35.694Z,57.52
2023-01-22T22:03:37.781Z,57.23
2023-01-22T22:05:40.210Z,57.46
2023-01-22T22:07:41.988Z,57.07
2023-01-22T22:09:46.895Z,57.45
2023-01-22T22:11:48.696Z,57.14
2023-01-22T22:13:50.254Z,57.55
2023-01-22T22:15:52.138Z,57.17
2023-01-22T22:17:53.694Z,57.39
2023-01-22T22:19:56.771Z,57.11
2023-01-22T22:21:58.452Z,57.73
2023-01-22T22:24:00.048Z,57.00
2023-01-22T22:26:02.266Z,57.54
2023-01-22T22:28:06.751Z,57.13
2023-01-22T22:30:09.163Z,57.18
2023-01-22T22:32:10.892Z,57.56
2023-01-22T22:34:12.722Z,57.55
2023-01-22T22:36:16.131Z,57.32
2023-01-22T22:38:17.835Z,57.59
2023-01-22T22:40:22.383Z,57.24
2023-01-22T22:42:24.086Z,57.03
2023-01-22T22:44:28.536Z,57.13
2023-01-22T22:46:33.503Z,57.49
2023-01-22T22:48:35.175Z,57.63
2023-01-22T22:50:36.825Z,57.74
2023-01-22T22:52:38.486Z,57.73
2023-01-22T22:54:40.290Z,57.50
2023-01-22T22:56:42.729Z,57.35
2023-01-22T22:58:44.338Z,57.15
2023-01-22T23:00:46.016Z,57.20
2023-01-22T23:02:50.613Z,57.50
2023-01-22T23:04:52.300Z,57.08
2023-01-22T23:06:54.312Z,57.35
2023-01-22T23:09:00.009Z,57.67
2023-01-22T23:11:06.359Z,57.71
2023-01-22T23:13:13.441Z,57.08
2023-01-22T23:15:17.565Z,57.46
2023-01-22T23:17:20.046Z,57.43
2023-01-22T23:19:24.604Z,57.33
2023-01-22T23:21:28.451Z,57.30
2023-01-22T23:23:30.067Z,57.35
2023-01-22T23:25:31.836Z,57.35
2023-01-22T23:27:33.536Z,57.60
2023-01-22T23:29:35.121Z,57.66
2023-01-22T23:31:38.538Z,57.22
2023-01-22T23:33:43.966Z,57.73
2023-01-22T23:35:54.093Z,57.20
2023-01-22T23:37:56.812Z,57.68
2023-01-22T23:39:58.525Z,57.21
2023-01-22T23:42:05.633Z,57.47
2023-01-22T23:44:08.014Z,57.24
2023-01-22T23:46:15.902Z,57.19
2023-01-22T23:48:18.419Z,57.31
2023-01-22T23:50:20.917Z,57.13
2023-01-22T23:52:22.685Z,57.30
2023-01-22T23:54:24.298Z,57.33
2023-01-22T23:56:31.856Z,57.60
2023-01-22T23:58:34.845Z,57.35
